sensor_id;sensor_type;location;lat;lon;timestamp;pressure;altitude;pressure_sealevel;temperature;humidity
28935;BME280;16044;52.726;-2.108;2024-01-10T00:01:59;102353.03;;;0.75;100.00
28935;BME280;16044;52.726;-2.108;2024-01-10T00:04:30;102349.44;;;0.76;100.00
28935;BME280;16044;52.726;-2.108;2024-01-10T00:07:00;102348.66;;;0.74;100.00
28935;BME280;16044;52.726;-2.108;2024-01-10T00:09:32;102341.78;;;0.68;100.00
28935;BME280;16044;52.726;-2.108;2024-01-10T00:12:03;102344.44;;;0.68;100.00
28935;BME280;16044;52.726;-2.108;2024-01-10T00:14:36;102340.03;;;0.67;100.00
28935;BME280;16044;52.726;-2.108;2024-01-10T00:17:07;102343.66;;;0.66;100.00
28935;BME280;16044;52.726;-2.108;2024-01-10T00:19:37;102348.16;;;0.64;100.00
28935;BME280;16044;52.726;-2.108;2024-01-10T00:22:08;102340.38;;;0.60;100.00
28935;BME280;16044;52.726;-2.108;2024-01-10T00:24:38;102334.97;;;0.61;100.00
28935;BME280;16044;52.726;-2.108;2024-01-10T00:27:09;102338.56;;;0.60;100.00
28935;BME280;16044;52.726;-2.108;2024-01-10T00:29:42;102320.75;;;0.61;100.00
28935;BME280;16044;52.726;-2.108;2024-01-10T00:32:12;102327.03;;;0.60;100.00
28935;BME280;16044;52.726;-2.108;2024-01-10T00:34:42;102329.75;;;0.58;100.00
28935;BME280;16044;52.726;-2.108;2024-01-10T00:37:13;102324.28;;;0.61;100.00
28935;BME280;16044;52.726;-2.108;2024-01-10T00:39:43;102314.59;;;0.58;100.00
28935;BME280;16044;52.726;-2.108;2024-01-10T00:42:13;102314.69;;;0.57;100.00
28935;BME280;16044;52.726;-2.108;2024-01-10T00:44:46;102305.78;;;0.56;100.00
28935;BME280;16044;52.726;-2.108;2024-01-10T00:47:17;102310.28;;;0.56;100.00
28935;BME280;16044;52.726;-2.108;2024-01-10T00:49:47;102306.81;;;0.54;100.00
28935;BME280;16044;52.726;-2.108;2024-01-10T00:52:18;102302.38;;;0.53;100.00
28935;BME280;16044;52.726;-2.108;2024-01-10T00:54:48;102300.63;;;0.53;100.00
28935;BME280;16044;52.726;-2.108;2024-01-10T00:57:19;102294.53;;;0.50;100.00
28935;BME280;16044;52.726;-2.108;2024-01-10T00:59:52;102295.28;;;0.53;100.00
28935;BME280;16044;52.726;-2.108;2024-01-10T01:02:22;102297.00;;;0.54;100.00
28935;BME280;16044;52.726;-2.108;2024-01-10T01:04:53;102286.38;;;0.53;100.00
28935;BME280;16044;52.726;-2.108;2024-01-10T01:07:23;102288.19;;;0.52;100.00
28935;BME280;16044;52.726;-2.108;2024-01-10T01:09:53;102288.19;;;0.52;100.00
28935;BME280;16044;52.726;-2.108;2024-01-10T01:12:24;102282.13;;;0.49;100.00
28935;BME280;16044;52.726;-2.108;2024-01-10T01:14:57;102282.34;;;0.44;100.00
28935;BME280;16044;52.726;-2.108;2024-01-10T01:17:27;102279.66;;;0.44;100.00
28935;BME280;16044;52.726;-2.108;2024-01-10T01:19:57;102274.47;;;0.41;100.00
28935;BME280;16044;52.726;-2.108;2024-01-10T01:22:29;102277.06;;;0.43;100.00
28935;BME280;16044;52.726;-2.108;2024-01-10T01:25:00;102280.53;;;0.45;100.00
28935;BME280;16044;52.726;-2.108;2024-01-10T01:27:30;102279.50;;;0.47;100.00
28935;BME280;16044;52.726;-2.108;2024-01-10T01:30:04;102275.94;;;0.48;100.00
28935;BME280;16044;52.726;-2.108;2024-01-10T01:32:36;102282.28;;;0.46;100.00
28935;BME280;16044;52.726;-2.108;2024-01-10T01:35:06;102277.78;;;0.46;100.00
28935;BME280;16044;52.726;-2.108;2024-01-10T01:37:37;102267.25;;;0.43;100.00
28935;BME280;16044;52.726;-2.108;2024-01-10T01:40:08;102281.53;;;0.42;100.00
28935;BME280;16044;52.726;-2.108;2024-01-10T01:42:39;102269.91;;;0.43;100.00
28935;BME280;16044;52.726;-2.108;2024-01-10T01:45:12;102274.47;;;0.41;100.00
28935;BME280;16044;52.726;-2.108;2024-01-10T01:47:43;102274.59;;;0.38;100.00
28935;BME280;16044;52.726;-2.108;2024-01-10T01:50:13;102276.31;;;0.39;100.00
28935;BME280;16044;52.726;-2.108;2024-01-10T01:52:44;102269.13;;;0.41;100.00
28935;BME280;16044;52.726;-2.108;2024-01-10T01:55:14;102283.41;;;0.40;100.00
28935;BME280;16044;52.726;-2.108;2024-01-10T01:57:45;102290.63;;;0.38;100.00
28935;BME280;16044;52.726;-2.108;2024-01-10T02:00:19;102288.75;;;0.40;100.00
28935;BME280;16044;52.726;-2.108;2024-01-10T02:02:50;102292.22;;;0.42;100.00
28935;BME280;16044;52.726;-2.108;2024-01-10T02:05:20;102282.53;;;0.39;100.00
28935;BME280;16044;52.726;-2.108;2024-01-10T02:07:51;102283.53;;;0.37;100.00
28935;BME280;16044;52.726;-2.108;2024-01-10T02:10:22;102283.66;;;0.34;100.00
28935;BME280;16044;52.726;-2.108;2024-01-10T02:12:53;102285.53;;;0.32;100.00
28935;BME280;16044;52.726;-2.108;2024-01-10T02:15:26;102283.53;;;0.37;100.00
28935;BME280;16044;52.726;-2.108;2024-01-10T02:17:57;102281.81;;;0.36;100.00
28935;BME280;16044;52.726;-2.108;2024-01-10T02:20:27;102276.47;;;0.36;100.00
28935;BME280;16044;52.726;-2.108;2024-01-10T02:22:57;102282.72;;;0.35;100.00
28935;BME280;16044;52.726;-2.108;2024-01-10T02:25:30;102285.47;;;0.33;100.00
28935;BME280;16044;52.726;-2.108;2024-01-10T02:28:01;102292.66;;;0.31;100.00
28935;BME280;16044;52.726;-2.108;2024-01-10T02:30:32;102289.13;;;0.31;100.00
28935;BME280;16044;52.726;-2.108;2024-01-10T02:33:02;102281.13;;;0.31;100.00
28935;BME280;16044;52.726;-2.108;2024-01-10T02:35:33;102288.19;;;0.32;100.00
28935;BME280;16044;52.726;-2.108;2024-01-10T02:38:03;102289.13;;;0.31;100.00
28935;BME280;16044;52.726;-2.108;2024-01-10T02:40:36;102282.94;;;0.30;100.00
28935;BME280;16044;52.726;-2.108;2024-01-10T02:43:07;102290.22;;;0.27;100.00
28935;BME280;16044;52.726;-2.108;2024-01-10T02:45:37;102285.78;;;0.26;100.00
28935;BME280;16044;52.726;-2.108;2024-01-10T02:48:08;102291.13;;;0.26;100.00
28935;BME280;16044;52.726;-2.108;2024-01-10T02:50:38;102288.41;;;0.27;100.00
28935;BME280;16044;52.726;-2.108;2024-01-10T02:53:08;102283.06;;;0.27;100.00
28935;BME280;16044;52.726;-2.108;2024-01-10T02:55:42;102290.13;;;0.28;100.00
28935;BME280;16044;52.726;-2.108;2024-01-10T02:58:13;102291.88;;;0.29;100.00
28935;BME280;16044;52.726;-2.108;2024-01-10T03:00:44;102291.06;;;0.27;100.00
28935;BME280;16044;52.726;-2.108;2024-01-10T03:03:15;102287.53;;;0.27;100.00
28935;BME280;16044;52.726;-2.108;2024-01-10T03:05:46;102295.53;;;0.27;100.00
28935;BME280;16044;52.726;-2.108;2024-01-10T03:08:16;102285.72;;;0.27;100.00
28935;BME280;16044;52.726;-2.108;2024-01-10T03:10:49;102285.91;;;0.23;100.00
28935;BME280;16044;52.726;-2.108;2024-01-10T03:13:19;102287.72;;;0.22;100.00
28935;BME280;16044;52.726;-2.108;2024-01-10T03:15:50;102284.19;;;0.22;100.00
28935;BME280;16044;52.726;-2.108;2024-01-10T03:18:20;102277.13;;;0.21;100.00
28935;BME280;16044;52.726;-2.108;2024-01-10T03:20:48;102278.00;;;0.21;100.00
28935;BME280;16044;52.726;-2.108;2024-01-10T03:23:19;102279.59;;;0.25;100.00
28935;BME280;16044;52.726;-2.108;2024-01-10T03:25:52;102284.06;;;0.25;100.00
28935;BME280;16044;52.726;-2.108;2024-01-10T03:28:22;102285.78;;;0.26;100.00
28935;BME280;16044;52.726;-2.108;2024-01-10T03:30:52;102284.78;;;0.28;100.00
28935;BME280;16044;52.726;-2.108;2024-01-10T03:33:23;102284.72;;;0.30;100.00
28935;BME280;16044;52.726;-2.108;2024-01-10T03:35:53;102285.72;;;0.27;100.00
28935;BME280;16044;52.726;-2.108;2024-01-10T03:38:21;102285.78;;;0.26;100.00
28935;BME280;16044;52.726;-2.108;2024-01-10T03:40:54;102278.53;;;0.29;100.00
28935;BME280;16044;52.726;-2.108;2024-01-10T03:43:25;102287.38;;;0.30;100.00
28935;BME280;16044;52.726;-2.108;2024-01-10T03:45:55;102288.47;;;0.26;100.00
28935;BME280;16044;52.726;-2.108;2024-01-10T03:48:25;102291.88;;;0.29;100.00
28935;BME280;16044;52.726;-2.108;2024-01-10T03:50:56;102286.47;;;0.31;100.00
28935;BME280;16044;52.726;-2.108;2024-01-10T03:53:26;102283.00;;;0.29;100.00
28935;BME280;16044;52.726;-2.108;2024-01-10T03:55:59;102291.81;;;0.31;100.00
28935;BME280;16044;52.726;-2.108;2024-01-10T03:58:34;102287.53;;;0.27;100.00
28935;BME280;16044;52.726;-2.108;2024-01-10T04:01:05;102288.47;;;0.26;100.00
28935;BME280;16044;52.726;-2.108;2024-01-10T04:03:36;102286.06;;;0.19;100.00
28935;BME280;16044;52.726;-2.108;2024-01-10T04:06:09;102290.44;;;0.21;100.00
28935;BME280;16044;52.726;-2.108;2024-01-10T04:08:39;102287.94;;;0.17;100.00
28935;BME280;16044;52.726;-2.108;2024-01-10T04:11:12;102277.50;;;0.11;100.00
28935;BME280;16044;52.726;-2.108;2024-01-10T04:13:43;102274.03;;;0.09;100.00
28935;BME280;16044;52.726;-2.108;2024-01-10T04:16:13;102269.59;;;0.10;100.00
28935;BME280;16044;52.726;-2.108;2024-01-10T04:18:43;102278.50;;;0.09;100.00
28935;BME280;16044;52.726;-2.108;2024-01-10T04:21:14;102272.31;;;0.08;100.00
28935;BME280;16044;52.726;-2.108;2024-01-10T04:23:44;102274.03;;;0.09;100.00
28935;BME280;16044;52.726;-2.108;2024-01-10T04:26:17;102265.13;;;0.10;100.00
28935;BME280;16044;52.726;-2.108;2024-01-10T04:28:48;102274.03;;;0.09;100.00
28935;BME280;16044;52.726;-2.108;2024-01-10T04:31:19;102270.34;;;0.13;100.00
28935;BME280;16044;52.726;-2.108;2024-01-10T04:33:49;102266.72;;;0.14;100.00
28935;BME280;16044;52.726;-2.108;2024-01-10T04:36:19;102265.91;;;0.12;100.00
28935;BME280;16044;52.726;-2.108;2024-01-10T04:38:50;102273.19;;;0.09;100.00
28935;BME280;16044;52.726;-2.108;2024-01-10T04:41:23;102266.97;;;0.08;100.00
28935;BME280;16044;52.726;-2.108;2024-01-10T04:43:53;102265.38;;;0.04;100.00
28935;BME280;16044;52.726;-2.108;2024-01-10T04:46:24;102264.50;;;0.04;100.00
28935;BME280;16044;52.726;-2.108;2024-01-10T04:48:54;102263.53;;;0.06;100.00
28935;BME280;16044;52.726;-2.108;2024-01-10T04:51:25;102267.78;;;0.10;100.00
28935;BME280;16044;52.726;-2.108;2024-01-10T04:53:55;102261.66;;;0.08;100.00
28935;BME280;16044;52.726;-2.108;2024-01-10T04:56:28;102262.44;;;0.10;100.00
28935;BME280;16044;52.726;-2.108;2024-01-10T04:58:58;102260.69;;;0.09;100.00
28935;BME280;16044;52.726;-2.108;2024-01-10T05:01:32;102260.59;;;0.12;100.00
28935;BME280;16044;52.726;-2.108;2024-01-10T05:04:04;102264.00;;;0.16;100.00
28935;BME280;16044;52.726;-2.108;2024-01-10T05:06:34;102252.47;;;0.15;100.00
28935;BME280;16044;52.726;-2.108;2024-01-10T05:09:05;102250.59;;;0.17;100.00
28935;BME280;16044;52.726;-2.108;2024-01-10T05:11:39;102262.88;;;0.22;100.00
28935;BME280;16044;52.726;-2.108;2024-01-10T05:14:10;102251.25;;;0.23;100.00
28935;BME280;16044;52.726;-2.108;2024-01-10T05:16:41;102255.66;;;0.24;100.00
28935;BME280;16044;52.726;-2.108;2024-01-10T05:19:12;102253.78;;;0.26;100.00
28935;BME280;16044;52.726;-2.108;2024-01-10T05:21:42;102246.75;;;0.25;100.00
28935;BME280;16044;52.726;-2.108;2024-01-10T05:24:12;102243.00;;;0.29;100.00
28935;BME280;16044;52.726;-2.108;2024-01-10T05:26:45;102247.59;;;0.25;100.00
28935;BME280;16044;52.726;-2.108;2024-01-10T05:29:18;102242.44;;;0.21;100.00
28935;BME280;16044;52.726;-2.108;2024-01-10T05:31:51;102249.53;;;0.22;100.00
28935;BME280;16044;52.726;-2.108;2024-01-10T05:34:22;102245.84;;;0.24;100.00
28935;BME280;16044;52.726;-2.108;2024-01-10T05:36:52;102245.00;;;0.24;100.00
28935;BME280;16044;52.726;-2.108;2024-01-10T05:39:22;102248.72;;;0.19;100.00
28935;BME280;16044;52.726;-2.108;2024-01-10T05:41:55;102244.47;;;0.15;100.00
28935;BME280;16044;52.726;-2.108;2024-01-10T05:44:26;102240.06;;;0.14;100.00
28935;BME280;16044;52.726;-2.108;2024-01-10T05:46:56;102247.38;;;0.09;100.00
28935;BME280;16044;52.726;-2.108;2024-01-10T05:49:27;102244.06;;;0.04;100.00
28935;BME280;16044;52.726;-2.108;2024-01-10T05:51:58;102240.72;;;-0.01;100.00
28935;BME280;16044;52.726;-2.108;2024-01-10T05:54:28;102237.31;;;-0.05;100.00
28935;BME280;16044;52.726;-2.108;2024-01-10T05:57:01;102236.72;;;-0.11;100.00
28935;BME280;16044;52.726;-2.108;2024-01-10T05:59:32;102230.69;;;-0.16;100.00
28935;BME280;16044;52.726;-2.108;2024-01-10T06:02:03;102238.97;;;-0.23;100.00
28935;BME280;16044;52.726;-2.108;2024-01-10T06:04:33;102234.81;;;-0.30;100.00
28935;BME280;16044;52.726;-2.108;2024-01-10T06:07:04;102239.44;;;-0.35;100.00
28935;BME280;16044;52.726;-2.108;2024-01-10T06:09:34;102242.19;;;-0.36;100.00
28935;BME280;16044;52.726;-2.108;2024-01-10T06:12:10;102244.09;;;-0.40;100.00
28935;BME280;16044;52.726;-2.108;2024-01-10T06:14:40;102241.69;;;-0.46;100.00
28935;BME280;16044;52.726;-2.108;2024-01-10T06:17:11;102242.75;;;-0.50;100.00
28935;BME280;16044;52.726;-2.108;2024-01-10T06:19:42;102247.38;;;-0.55;100.00
28935;BME280;16044;52.726;-2.108;2024-01-10T06:22:13;102244.03;;;-0.61;100.00
28935;BME280;16044;52.726;-2.108;2024-01-10T06:24:44;102250.41;;;-0.65;100.00
28935;BME280;16044;52.726;-2.108;2024-01-10T06:27:17;102255.00;;;-0.68;100.00
28935;BME280;16044;52.726;-2.108;2024-01-10T06:29:47;102254.25;;;-0.72;100.00
28935;BME280;16044;52.726;-2.108;2024-01-10T06:32:18;102255.38;;;-0.77;100.00
28935;BME280;16044;52.726;-2.108;2024-01-10T06:34:49;102252.06;;;-0.84;100.00
28935;BME280;16044;52.726;-2.108;2024-01-10T06:37:20;102257.59;;;-0.89;100.00
28935;BME280;16044;52.726;-2.108;2024-01-10T06:39:50;102259.50;;;-0.92;100.00
28935;BME280;16044;52.726;-2.108;2024-01-10T06:42:23;102250.81;;;-0.98;100.00
28935;BME280;16044;52.726;-2.108;2024-01-10T06:44:54;102259.78;;;-1.00;100.00
28935;BME280;16044;52.726;-2.108;2024-01-10T06:47:24;102262.63;;;-1.05;100.00
28935;BME280;16044;52.726;-2.108;2024-01-10T06:49:55;102259.25;;;-1.10;100.00
28935;BME280;16044;52.726;-2.108;2024-01-10T06:52:25;102265.63;;;-1.14;100.00
28935;BME280;16044;52.726;-2.108;2024-01-10T06:54:56;102257.78;;;-1.17;100.00
28935;BME280;16044;52.726;-2.108;2024-01-10T06:57:29;102261.44;;;-1.21;100.00
28935;BME280;16044;52.726;-2.108;2024-01-10T06:59:59;102263.25;;;-1.22;100.00
28935;BME280;16044;52.726;-2.108;2024-01-10T07:02:33;102263.38;;;-1.25;100.00
28935;BME280;16044;52.726;-2.108;2024-01-10T07:05:07;102264.38;;;-1.29;100.00
28935;BME280;16044;52.726;-2.108;2024-01-10T07:07:38;102270.66;;;-1.30;100.00
28935;BME280;16044;52.726;-2.108;2024-01-10T07:10:09;102267.13;;;-1.30;100.00
28935;BME280;16044;52.726;-2.108;2024-01-10T07:12:42;102269.84;;;-1.32;100.00
28935;BME280;16044;52.726;-2.108;2024-01-10T07:15:13;102271.69;;;-1.34;100.00
28935;BME280;16044;52.726;-2.108;2024-01-10T07:17:44;102272.56;;;-1.33;100.00
28935;BME280;16044;52.726;-2.108;2024-01-10T07:20:15;102274.06;;;-1.26;100.00
28935;BME280;16044;52.726;-2.108;2024-01-10T07:22:45;102272.22;;;-1.24;100.00
28935;BME280;16044;52.726;-2.108;2024-01-10T07:25:16;102273.84;;;-1.20;100.00
28935;BME280;16044;52.726;-2.108;2024-01-10T07:27:51;102273.56;;;-1.12;100.00
28935;BME280;16044;52.726;-2.108;2024-01-10T07:30:22;102275.91;;;-1.05;100.00
28935;BME280;16044;52.726;-2.108;2024-01-10T07:32:53;102272.97;;;-0.97;100.00
28935;BME280;16044;52.726;-2.108;2024-01-10T07:35:23;102262.91;;;-0.89;100.00
28935;BME280;16044;52.726;-2.108;2024-01-10T07:37:54;102274.19;;;-0.82;100.00
28935;BME280;16044;52.726;-2.108;2024-01-10T07:40:24;102278.44;;;-0.78;100.00
28935;BME280;16044;52.726;-2.108;2024-01-10T07:42:57;102271.91;;;-0.69;100.00
28935;BME280;16044;52.726;-2.108;2024-01-10T07:45:27;102278.53;;;-0.57;100.00
28935;BME280;16044;52.726;-2.108;2024-01-10T07:47:58;102279.00;;;-0.46;100.00
28935;BME280;16044;52.726;-2.108;2024-01-10T07:50:28;102281.28;;;-0.37;100.00
28935;BME280;16044;52.726;-2.108;2024-01-10T07:52:59;102283.63;;;-0.29;100.00
28935;BME280;16044;52.726;-2.108;2024-01-10T07:55:30;102273.41;;;-0.18;100.00
28935;BME280;16044;52.726;-2.108;2024-01-10T07:58:03;102266.94;;;-0.12;100.00
28935;BME280;16044;52.726;-2.108;2024-01-10T08:00:34;102272.81;;;-0.04;100.00
28935;BME280;16044;52.726;-2.108;2024-01-10T08:03:05;102272.81;;;-0.04;100.00
28935;BME280;16044;52.726;-2.108;2024-01-10T08:05:37;102272.44;;;0.05;100.00
28935;BME280;16044;52.726;-2.108;2024-01-10T08:08:07;102274.97;;;0.08;100.00
28935;BME280;16044;52.726;-2.108;2024-01-10T08:10:40;102266.72;;;0.14;100.00
28935;BME280;16044;52.726;-2.108;2024-01-10T08:13:11;102274.44;;;0.21;100.00
28935;BME280;16044;52.726;-2.108;2024-01-10T08:15:41;102277.78;;;0.26;100.00
28935;BME280;16044;52.726;-2.108;2024-01-10T08:18:12;102271.31;;;0.31;100.00
28935;BME280;16044;52.726;-2.108;2024-01-10T08:20:42;102273.66;;;0.39;100.00
28935;BME280;16044;52.726;-2.108;2024-01-10T08:23:13;102275.25;;;0.43;100.00
28935;BME280;16044;52.726;-2.108;2024-01-10T08:25:43;102279.59;;;0.46;100.00
28935;BME280;16044;52.726;-2.108;2024-01-10T08:28:16;102278.47;;;0.51;100.00
28935;BME280;16044;52.726;-2.108;2024-01-10T08:30:47;102275.81;;;0.51;100.00
28935;BME280;16044;52.726;-2.108;2024-01-10T08:33:17;102277.41;;;0.55;100.00
28935;BME280;16044;52.726;-2.108;2024-01-10T08:35:48;102285.06;;;0.63;100.00
28935;BME280;16044;52.726;-2.108;2024-01-10T08:38:18;102286.66;;;0.67;100.00
28935;BME280;16044;52.726;-2.108;2024-01-10T08:40:48;102287.66;;;0.65;100.00
28935;BME280;16044;52.726;-2.108;2024-01-10T08:43:22;102284.50;;;0.75;100.00
28935;BME280;16044;52.726;-2.108;2024-01-10T08:45:52;102282.56;;;0.79;100.00
28935;BME280;16044;52.726;-2.108;2024-01-10T08:48:23;102290.31;;;0.85;100.00
28935;BME280;16044;52.726;-2.108;2024-01-10T08:50:54;102288.28;;;0.90;100.00
28935;BME280;16044;52.726;-2.108;2024-01-10T08:53:24;102282.81;;;0.93;100.00
28935;BME280;16044;52.726;-2.108;2024-01-10T08:55:55;102280.88;;;0.97;100.00
28935;BME280;16044;52.726;-2.108;2024-01-10T08:58:28;102294.22;;;0.97;100.00
28935;BME280;16044;52.726;-2.108;2024-01-10T09:00:59;102287.72;;;1.03;100.00
28935;BME280;16044;52.726;-2.108;2024-01-10T09:03:31;102288.47;;;1.06;100.00
28935;BME280;16044;52.726;-2.108;2024-01-10T09:06:01;102283.84;;;1.10;100.00
28935;BME280;16044;52.726;-2.108;2024-01-10T09:08:38;102290.09;;;1.09;100.00
28935;BME280;16044;52.726;-2.108;2024-01-10T09:11:09;102296.91;;;1.16;100.00
28935;BME280;16044;52.726;-2.108;2024-01-10T09:13:42;102298.41;;;1.22;100.00
28935;BME280;16044;52.726;-2.108;2024-01-10T09:16:12;102300.00;;;1.26;100.00
28935;BME280;16044;52.726;-2.108;2024-01-10T09:18:43;102297.22;;;1.29;100.00
28935;BME280;16044;52.726;-2.108;2024-01-10T09:21:13;102297.94;;;1.32;100.00
28935;BME280;16044;52.726;-2.108;2024-01-10T09:23:44;102304.06;;;1.34;100.00
28935;BME280;16044;52.726;-2.108;2024-01-10T09:26:15;102297.56;;;1.40;100.00
28935;BME280;16044;52.726;-2.108;2024-01-10T09:28:48;102300.00;;;1.45;100.00
28935;BME280;16044;52.726;-2.108;2024-01-10T09:31:19;102294.34;;;1.51;100.00
28935;BME280;16044;52.726;-2.108;2024-01-10T09:33:49;102305.47;;;1.61;100.00
28935;BME280;16044;52.726;-2.108;2024-01-10T09:36:19;102304.47;;;1.63;100.00
28935;BME280;16044;52.726;-2.108;2024-01-10T09:38:50;102306.06;;;1.67;100.00
28935;BME280;16044;52.726;-2.108;2024-01-10T09:41:21;102305.81;;;1.72;100.00
28935;BME280;16044;52.726;-2.108;2024-01-10T09:43:58;102295.63;;;1.80;100.00
28935;BME280;16044;52.726;-2.108;2024-01-10T09:46:29;102305.00;;;1.89;100.00
28935;BME280;16044;52.726;-2.108;2024-01-10T09:49:02;102305.72;;;1.92;100.00
28935;BME280;16044;52.726;-2.108;2024-01-10T09:51:33;102311.63;;;1.99;100.00
28935;BME280;16044;52.726;-2.108;2024-01-10T09:54:03;102313.84;;;2.08;100.00
28935;BME280;16044;52.726;-2.108;2024-01-10T09:56:34;102304.88;;;2.09;100.00
28935;BME280;16044;52.726;-2.108;2024-01-10T09:59:07;102299.31;;;2.14;100.00
28935;BME280;16044;52.726;-2.108;2024-01-10T10:01:40;102310.06;;;2.12;100.00
28935;BME280;16044;52.726;-2.108;2024-01-10T10:04:12;102308.50;;;2.26;100.00
28935;BME280;16044;52.726;-2.108;2024-01-10T10:06:44;102305.84;;;2.26;100.00
28935;BME280;16044;52.726;-2.108;2024-01-10T10:09:15;102311.81;;;2.31;100.00
28935;BME280;16044;52.726;-2.108;2024-01-10T10:11:53;102316.22;;;2.32;100.00
28935;BME280;16044;52.726;-2.108;2024-01-10T10:14:28;102308.19;;;2.32;100.00
28935;BME280;16044;52.726;-2.108;2024-01-10T10:17:13;102303.53;;;2.36;100.00
28935;BME280;16044;52.726;-2.108;2024-01-10T10:19:44;102311.34;;;2.40;100.00
28935;BME280;16044;52.726;-2.108;2024-01-10T10:22:15;102306.84;;;2.41;100.00
28935;BME280;16044;52.726;-2.108;2024-01-10T10:24:48;102300.47;;;2.43;100.00
28935;BME280;16044;52.726;-2.108;2024-01-10T10:27:20;102307.41;;;2.47;100.00
28935;BME280;16044;52.726;-2.108;2024-01-10T10:29:53;102302.03;;;2.47;100.00
28935;BME280;16044;52.726;-2.108;2024-01-10T10:32:23;102300.84;;;2.53;100.00
28935;BME280;16044;52.726;-2.108;2024-01-10T10:34:56;102305.19;;;2.56;100.00
28935;BME280;16044;52.726;-2.108;2024-01-10T10:37:26;102308.75;;;2.56;100.00
28935;BME280;16044;52.726;-2.108;2024-01-10T10:39:57;102302.97;;;2.64;100.00
28935;BME280;16044;52.726;-2.108;2024-01-10T10:42:28;102306.28;;;2.69;100.00
28935;BME280;16044;52.726;-2.108;2024-01-10T10:45:05;102308.19;;;2.67;100.00
28935;BME280;16044;52.726;-2.108;2024-01-10T10:47:37;102306.09;;;2.72;100.00
28935;BME280;16044;52.726;-2.108;2024-01-10T10:50:19;102299.81;;;2.73;100.00
28935;BME280;16044;52.726;-2.108;2024-01-10T10:52:51;102310.03;;;2.82;100.00
28935;BME280;16044;52.726;-2.108;2024-01-10T10:55:22;102294.84;;;2.83;100.00
28935;BME280;16044;52.726;-2.108;2024-01-10T10:57:55;102300.13;;;2.84;100.00
28935;BME280;16044;52.726;-2.108;2024-01-10T11:00:40;102297.97;;;2.91;100.00
28935;BME280;16044;52.726;-2.108;2024-01-10T11:03:13;102298.06;;;2.89;100.00
28935;BME280;16044;52.726;-2.108;2024-01-10T11:05:44;102281.81;;;2.92;100.00
28935;BME280;16044;52.726;-2.108;2024-01-10T11:08:16;102290.47;;;2.98;100.00
28935;BME280;16044;52.726;-2.108;2024-01-10T11:10:49;102281.50;;;2.99;100.00
28935;BME280;16044;52.726;-2.108;2024-01-10T11:13:27;102273.72;;;3.10;100.00
28935;BME280;16044;52.726;-2.108;2024-01-10T11:16:24;102285.31;;;3.10;100.00
28935;BME280;16044;52.726;-2.108;2024-01-10T11:19:23;102273.72;;;3.10;100.00
28935;BME280;16044;52.726;-2.108;2024-01-10T11:22:33;102281.44;;;3.16;100.00
28935;BME280;16044;52.726;-2.108;2024-01-10T11:25:13;102279.63;;;3.17;100.00
28935;BME280;16044;52.726;-2.108;2024-01-10T11:27:45;102278.50;;;3.21;100.00
28935;BME280;16044;52.726;-2.108;2024-01-10T11:30:36;102273.97;;;3.21;100.00
28935;BME280;16044;52.726;-2.108;2024-01-10T11:33:21;102277.56;;;3.22;100.00
28935;BME280;16044;52.726;-2.108;2024-01-10T11:36:14;102262.31;;;3.22;100.00
28935;BME280;16044;52.726;-2.108;2024-01-10T11:38:50;102263.19;;;3.23;100.00
28935;BME280;16044;52.726;-2.108;2024-01-10T11:41:26;102263.88;;;3.26;100.00
28935;BME280;16044;52.726;-2.108;2024-01-10T11:47:20;102267.97;;;3.34;100.00
28935;BME280;16044;52.726;-2.108;2024-01-10T11:49:59;102258.78;;;3.38;100.00
28935;BME280;16044;52.726;-2.108;2024-01-10T11:52:37;102256.63;;;3.44;100.00
28935;BME280;16044;52.726;-2.108;2024-01-10T11:55:08;102258.97;;;3.50;100.00
28935;BME280;16044;52.726;-2.108;2024-01-10T11:57:38;102256.97;;;3.54;100.00
28935;BME280;16044;52.726;-2.108;2024-01-10T12:00:10;102240.03;;;3.54;100.00
28935;BME280;16044;52.726;-2.108;2024-01-10T12:02:42;102249.72;;;3.56;100.00
28935;BME280;16044;52.726;-2.108;2024-01-10T12:05:19;102239.91;;;3.55;100.00
28935;BME280;16044;52.726;-2.108;2024-01-10T12:07:51;102242.59;;;3.55;100.00
28935;BME280;16044;52.726;-2.108;2024-01-10T12:10:26;102237.25;;;3.55;100.00
28935;BME280;16044;52.726;-2.108;2024-01-10T12:13:03;102234.56;;;3.55;100.00
28935;BME280;16044;52.726;-2.108;2024-01-10T12:15:33;102228.63;;;3.50;100.00
28935;BME280;16044;52.726;-2.108;2024-01-10T12:18:04;102221.84;;;3.59;100.00
28935;BME280;16044;52.726;-2.108;2024-01-10T12:20:38;102222.53;;;3.62;100.00
28935;BME280;16044;52.726;-2.108;2024-01-10T12:23:11;102211.72;;;3.64;100.00
28935;BME280;16044;52.726;-2.108;2024-01-10T12:25:41;102211.34;;;3.70;100.00
28935;BME280;16044;52.726;-2.108;2024-01-10T12:28:15;102203.31;;;3.70;100.00
28935;BME280;16044;52.726;-2.108;2024-01-10T12:30:47;102212.91;;;3.74;100.00
28935;BME280;16044;52.726;-2.108;2024-01-10T12:33:18;102207.28;;;3.79;100.00
28935;BME280;16044;52.726;-2.108;2024-01-10T12:36:10;102215.25;;;3.80;100.00
28935;BME280;16044;52.726;-2.108;2024-01-10T12:38:41;102205.97;;;3.86;100.00
28935;BME280;16044;52.726;-2.108;2024-01-10T12:41:11;102208.44;;;3.89;100.00
28935;BME280;16044;52.726;-2.108;2024-01-10T12:43:42;102199.63;;;3.87;100.00
28935;BME280;16044;52.726;-2.108;2024-01-10T12:46:13;102209.22;;;3.91;100.00
28935;BME280;16044;52.726;-2.108;2024-01-10T12:48:43;102194.69;;;3.95;100.00
28935;BME280;16044;52.726;-2.108;2024-01-10T12:51:16;102198.03;;;3.99;100.00
28935;BME280;16044;52.726;-2.108;2024-01-10T12:53:47;102197.00;;;4.01;100.00
28935;BME280;16044;52.726;-2.108;2024-01-10T12:56:17;102190.94;;;3.98;100.00
28935;BME280;16044;52.726;-2.108;2024-01-10T12:58:48;102190.56;;;4.04;100.00
28935;BME280;16044;52.726;-2.108;2024-01-10T13:01:18;102198.72;;;4.02;100.00
28935;BME280;16044;52.726;-2.108;2024-01-10T13:03:48;102195.84;;;4.05;100.00
28935;BME280;16044;52.726;-2.108;2024-01-10T13:06:22;102194.03;;;4.06;100.00